Time;durP1;ratioP1;P1;durP2;ratioP2;P2;SDS_P1;SDS_P2;PMS_P1;PMS_P2;Temp;Humidity;BMP_temperature;BMP_pressure;BME280_temperature;BME280_humidity;BME280_pressure;Samples;Min_cycle;Max_cycle;Signal;HPM_P1;HPM_P2
2022/03/11 00:00:42;;;;;;;19.60;10.63;;;10.60;99.90;;;;;;5029629;28;20992;-58
2022/03/11 00:03:11;;;;;;;18.33;10.95;;;10.60;99.90;;;;;;5029821;28;20042;-58
2022/03/11 00:05:40;;;;;;;17.63;10.50;;;10.60;99.90;;;;;;5026545;28;20049;-58
2022/03/11 00:08:08;;;;;;;17.70;10.50;;;10.60;99.90;;;;;;5024994;28;20385;-56
2022/03/11 00:10:36;;;;;;;19.88;10.77;;;10.60;99.90;;;;;;5010908;28;20054;-57
2022/03/11 00:13:04;;;;;;;24.02;10.93;;;10.60;99.90;;;;;;5029029;28;20305;-56
2022/03/11 00:15:31;;;;;;;19.13;10.18;;;10.60;99.90;;;;;;5025618;28;20052;-57
2022/03/11 00:17:59;;;;;;;21.73;10.60;;;10.60;99.90;;;;;;5011945;28;20052;-56
2022/03/11 00:20:27;;;;;;;18.08;10.40;;;10.60;99.90;;;;;;5015490;28;20057;-56
2022/03/11 00:22:55;;;;;;;19.02;11.10;;;10.60;99.90;;;;;;5029200;28;20044;-57
2022/03/11 00:25:23;;;;;;;19.75;11.43;;;10.60;99.90;;;;;;5029991;28;20068;-57
2022/03/11 00:27:51;;;;;;;19.95;10.40;;;10.60;99.90;;;;;;5028926;28;20048;-56
2022/03/11 00:30:19;;;;;;;18.63;11.48;;;10.60;99.90;;;;;;5029245;28;20049;-56
2022/03/11 00:32:48;;;;;;;18.52;11.50;;;10.60;99.90;;;;;;5011294;28;20053;-57
2022/03/11 00:35:15;;;;;;;18.58;11.23;;;10.60;99.90;;;;;;5006558;28;20052;-57
2022/03/11 00:37:43;;;;;;;20.58;11.82;;;10.60;99.90;;;;;;5011705;28;20052;-57
2022/03/11 00:40:14;;;;;;;21.73;11.57;;;10.50;99.90;;;;;;5029731;28;20041;-56
2022/03/11 00:42:42;;;;;;;20.17;11.40;;;10.50;99.90;;;;;;5011339;28;20056;-56
2022/03/11 00:45:10;;;;;;;21.60;11.73;;;10.60;99.90;;;;;;5008654;28;20478;-57
2022/03/11 00:47:38;;;;;;;19.65;11.52;;;10.60;99.90;;;;;;5015975;28;20129;-57
2022/03/11 00:50:07;;;;;;;20.13;10.98;;;10.50;99.90;;;;;;5029127;28;20396;-57
2022/03/11 00:52:35;;;;;;;19.27;11.77;;;10.50;99.90;;;;;;5029043;28;20050;-57
2022/03/11 00:55:03;;;;;;;20.45;11.07;;;10.50;99.90;;;;;;5011937;28;20049;-56
2022/03/11 00:57:31;;;;;;;18.85;11.23;;;10.50;99.90;;;;;;5027993;28;20049;-56
2022/03/11 00:59:58;;;;;;;20.58;12.10;;;10.50;99.90;;;;;;5029090;28;20049;-57
2022/03/11 01:02:26;;;;;;;21.90;12.27;;;10.50;99.90;;;;;;5027507;28;20037;-57
2022/03/11 01:04:54;;;;;;;20.38;11.98;;;10.50;99.90;;;;;;5025526;28;20042;-57
2022/03/11 01:07:22;;;;;;;24.35;12.40;;;10.50;99.90;;;;;;5024391;28;20065;-57
2022/03/11 01:09:49;;;;;;;24.25;13.02;;;10.40;99.90;;;;;;5028389;28;20045;-57
2022/03/11 01:12:17;;;;;;;25.70;13.25;;;10.50;99.90;;;;;;5028561;28;20098;-57
2022/03/11 01:14:44;;;;;;;25.23;12.63;;;10.40;99.90;;;;;;5011472;28;20045;-57
2022/03/11 01:17:12;;;;;;;19.63;11.77;;;10.50;99.90;;;;;;5028670;28;20042;-58
2022/03/11 01:19:41;;;;;;;18.85;11.77;;;10.50;99.90;;;;;;5028534;28;20048;-57
2022/03/11 01:22:08;;;;;;;18.98;10.70;;;10.40;99.90;;;;;;5013290;28;20038;-58
2022/03/11 01:24:36;;;;;;;20.98;11.80;;;10.40;99.90;;;;;;5028087;28;20049;-56
2022/03/11 01:27:04;;;;;;;21.90;11.80;;;10.50;99.90;;;;;;5028152;28;20052;-57
2022/03/11 01:29:31;;;;;;;23.00;13.00;;;10.40;99.90;;;;;;5019229;28;20414;-56
2022/03/11 01:31:59;;;;;;;21.63;11.13;;;10.40;99.90;;;;;;5011997;28;20064;-58
2022/03/11 01:34:27;;;;;;;20.00;11.93;;;10.40;99.90;;;;;;5027918;28;20045;-57
2022/03/11 01:36:54;;;;;;;19.63;12.18;;;10.40;99.90;;;;;;5009291;28;20413;-57
2022/03/11 01:39:24;;;;;;;19.65;10.88;;;10.40;99.90;;;;;;5022594;28;20045;-58
2022/03/11 01:41:52;;;;;;;19.08;10.63;;;10.40;99.90;;;;;;5027874;28;20548;-58
2022/03/11 01:44:25;;;;;;;21.55;11.30;;;10.40;99.90;;;;;;5027942;28;20044;-56
2022/03/11 01:46:54;;;;;;;24.35;12.10;;;10.40;99.90;;;;;;5019569;28;20049;-56
2022/03/11 01:49:22;;;;;;;22.38;12.40;;;10.40;99.90;;;;;;5028301;28;20056;-56
2022/03/11 01:51:50;;;;;;;20.20;11.07;;;10.40;99.90;;;;;;5027116;28;20049;-57
2022/03/11 01:54:19;;;;;;;19.98;11.32;;;10.40;99.90;;;;;;5028253;28;20050;-57
2022/03/11 01:56:47;;;;;;;19.90;10.52;;;10.40;99.90;;;;;;5027903;28;20049;-57
2022/03/11 01:59:14;;;;;;;23.15;10.20;;;10.30;99.90;;;;;;5026482;28;20048;-57
2022/03/11 02:01:42;;;;;;;18.88;10.57;;;10.30;99.90;;;;;;5027158;28;20057;-57
2022/03/11 02:04:10;;;;;;;22.25;11.43;;;10.30;99.90;;;;;;5024583;28;20498;-57
2022/03/11 02:06:38;;;;;;;18.13;9.70;;;10.30;99.90;;;;;;5023752;28;20060;-57
2022/03/11 02:09:06;;;;;;;17.33;10.07;;;10.30;99.90;;;;;;5024593;28;20049;-58
2022/03/11 02:11:34;;;;;;;17.90;10.20;;;10.30;99.90;;;;;;5023915;28;20041;-59
2022/03/11 02:14:01;;;;;;;19.17;10.30;;;10.30;99.90;;;;;;5024658;28;20041;-57
2022/03/11 02:16:32;;;;;;;18.42;9.73;;;10.30;99.90;;;;;;5024383;28;20057;-58
2022/03/11 02:19:00;;;;;;;20.20;10.82;;;10.30;99.90;;;;;;5024066;28;20064;-57
2022/03/11 02:21:28;;;;;;;18.35;10.65;;;10.20;99.90;;;;;;5024531;28;20053;-58
2022/03/11 02:23:59;;;;;;;19.17;10.20;;;10.20;99.90;;;;;;5024491;28;20052;-58
2022/03/11 02:26:28;;;;;;;19.67;9.73;;;10.20;99.90;;;;;;5024071;28;20053;-58
2022/03/11 02:28:58;;;;;;;18.33;10.02;;;10.20;99.90;;;;;;5023981;28;20056;-58
2022/03/11 02:31:28;;;;;;;17.73;9.50;;;10.20;99.90;;;;;;5004044;28;20408;-57
2022/03/11 02:34:01;;;;;;;20.77;10.10;;;10.10;99.90;;;;;;5027262;28;20053;-57
2022/03/11 02:36:29;;;;;;;15.82;8.35;;;10.10;99.90;;;;;;5027871;28;20045;-58
2022/03/11 02:38:57;;;;;;;16.35;8.82;;;10.10;99.90;;;;;;5026359;28;20049;-58
2022/03/11 02:41:27;;;;;;;14.52;8.75;;;10.10;99.90;;;;;;5026770;28;20819;-56
2022/03/11 02:43:54;;;;;;;15.90;8.82;;;10.10;99.90;;;;;;4997793;28;20531;-57
2022/03/11 02:46:22;;;;;;;18.23;9.50;;;10.10;99.90;;;;;;5026752;28;20042;-58
2022/03/11 02:48:49;;;;;;;14.00;8.85;;;10.10;99.90;;;;;;5009502;28;20385;-58
2022/03/11 02:51:17;;;;;;;16.05;9.45;;;10.10;99.90;;;;;;5023895;28;20056;-58
2022/03/11 02:53:45;;;;;;;18.35;8.98;;;10.10;99.90;;;;;;5015349;28;20057;-57
2022/03/11 02:56:15;;;;;;;16.25;8.65;;;10.10;99.90;;;;;;5027483;28;20041;-57
2022/03/11 02:58:43;;;;;;;16.10;9.45;;;10.10;99.90;;;;;;5025694;28;20042;-57
2022/03/11 03:01:10;;;;;;;17.40;9.05;;;10.10;99.90;;;;;;5026993;28;20045;-58
2022/03/11 03:03:39;;;;;;;17.58;8.98;;;10.10;99.90;;;;;;5010592;28;20037;-58
2022/03/11 03:06:09;;;;;;;18.23;8.80;;;10.10;99.90;;;;;;5026615;28;20393;-58
2022/03/11 03:08:37;;;;;;;16.10;9.23;;;10.10;99.90;;;;;;5026357;28;20052;-57
2022/03/11 03:11:04;;;;;;;19.23;10.27;;;10.10;99.90;;;;;;5024789;28;20037;-58
2022/03/11 03:13:32;;;;;;;15.35;8.80;;;10.10;99.90;;;;;;4996046;28;20046;-58
2022/03/11 03:16:00;;;;;;;18.27;8.75;;;10.10;99.90;;;;;;5026861;28;20042;-57
2022/03/11 03:18:29;;;;;;;19.27;9.38;;;10.10;99.90;;;;;;5031347;28;20185;-57
2022/03/11 03:20:56;;;;;;;15.57;9.20;;;10.10;99.90;;;;;;5013519;28;20045;-57
2022/03/11 03:23:26;;;;;;;17.33;9.30;;;10.10;99.90;;;;;;5030572;28;20060;-57
2022/03/11 03:25:54;;;;;;;18.95;9.60;;;10.10;99.90;;;;;;5033088;28;20053;-57
2022/03/11 03:28:22;;;;;;;17.20;9.65;;;10.10;99.90;;;;;;5033739;28;20057;-58
2022/03/11 03:30:49;;;;;;;14.60;8.73;;;10.10;99.90;;;;;;5034467;28;20048;-57
2022/03/11 03:33:18;;;;;;;14.85;8.63;;;10.10;99.90;;;;;;5033841;28;20044;-57
2022/03/11 03:35:46;;;;;;;16.58;9.15;;;10.10;99.90;;;;;;5033422;28;20041;-57
2022/03/11 03:38:13;;;;;;;14.77;7.82;;;10.20;99.90;;;;;;5033116;28;20056;-58
2022/03/11 03:40:41;;;;;;;15.27;8.05;;;10.10;99.90;;;;;;5032464;28;20389;-58
2022/03/11 03:43:09;;;;;;;19.45;9.63;;;10.10;99.90;;;;;;5033988;28;20041;-58
2022/03/11 03:45:36;;;;;;;23.60;10.13;;;10.20;99.90;;;;;;5034006;28;20116;-58
2022/03/11 03:48:04;;;;;;;18.50;10.00;;;10.20;99.90;;;;;;5033342;28;20037;-58
2022/03/11 03:50:32;;;;;;;18.65;9.68;;;10.20;99.90;;;;;;5033159;28;20056;-58
2022/03/11 03:53:00;;;;;;;18.98;9.77;;;10.20;99.90;;;;;;5032935;28;20572;-58
2022/03/11 03:55:27;;;;;;;20.88;10.05;;;10.20;99.90;;;;;;5020785;28;20033;-57
2022/03/11 03:57:55;;;;;;;22.05;9.18;;;10.20;99.90;;;;;;5033363;28;20061;-57
2022/03/11 04:00:23;;;;;;;17.73;9.60;;;10.20;99.90;;;;;;5033496;28;20516;-57
2022/03/11 04:02:51;;;;;;;17.15;9.32;;;10.20;99.90;;;;;;5033405;28;20057;-56
2022/03/11 04:05:20;;;;;;;20.05;9.80;;;10.20;99.90;;;;;;5032796;28;20041;-57
2022/03/11 04:07:48;;;;;;;19.45;9.57;;;10.20;99.90;;;;;;5033598;28;20516;-57
2022/03/11 04:10:18;;;;;;;21.52;10.95;;;10.30;99.90;;;;;;5033270;28;20504;-56
2022/03/11 04:12:45;;;;;;;;;;;10.20;99.90;;;;;;5033244;28;20049;-56
2022/03/11 04:15:13;;;;;;;20.25;10.25;;;10.20;99.90;;;;;;5033466;28;19925;-56
2022/03/11 04:17:41;;;;;;;18.05;10.32;;;10.20;99.90;;;;;;5033534;28;20049;-56
2022/03/11 04:20:10;;;;;;;18.92;10.55;;;10.20;99.90;;;;;;5032334;28;20038;-56
2022/03/11 04:22:42;;;;;;;17.88;9.75;;;10.30;99.90;;;;;;5032897;28;20061;-56
2022/03/11 04:25:11;;;;;;;19.35;10.23;;;10.20;99.90;;;;;;5032306;28;20046;-56
2022/03/11 04:27:39;;;;;;;16.08;9.93;;;10.20;99.90;;;;;;5031974;28;20401;-56
2022/03/11 04:30:08;;;;;;;20.45;10.52;;;10.20;99.90;;;;;;5032498;28;20065;-57
2022/03/11 04:32:36;;;;;;;18.08;9.30;;;10.20;99.90;;;;;;5033036;28;20052;-57
2022/03/11 04:35:04;;;;;;;20.48;11.35;;;10.10;99.90;;;;;;5013248;28;20046;-57
2022/03/11 04:37:32;;;;;;;18.83;9.75;;;10.10;99.90;;;;;;5029585;28;20045;-57
2022/03/11 04:40:00;;;;;;;21.98;12.00;;;10.10;99.90;;;;;;5032585;28;20048;-57
2022/03/11 04:42:28;;;;;;;19.30;10.98;;;10.10;99.90;;;;;;5032266;28;20045;-56
2022/03/11 04:44:55;;;;;;;20.73;9.88;;;10.10;99.90;;;;;;5032303;28;20038;-57
2022/03/11 04:47:23;;;;;;;21.35;10.80;;;10.10;99.90;;;;;;5015350;28;20441;-55
2022/03/11 04:49:53;;;;;;;;;;;10.10;99.90;;;;;;5032315;28;20041;-56
2022/03/11 04:52:21;;;;;;;20.65;12.10;;;10.10;99.90;;;;;;5032591;28;19921;-56
2022/03/11 04:54:49;;;;;;;22.33;11.73;;;10.10;99.90;;;;;;5032496;28;20061;-57
2022/03/11 04:57:16;;;;;;;24.65;12.88;;;10.10;99.90;;;;;;5032356;28;20053;-58
2022/03/11 04:59:44;;;;;;;22.65;11.50;;;10.10;99.90;;;;;;5031467;28;20401;-58
2022/03/11 05:02:12;;;;;;;23.60;12.95;;;10.00;99.90;;;;;;5032637;28;20049;-57
2022/03/11 05:04:39;;;;;;;23.10;12.63;;;10.00;99.90;;;;;;5032061;28;20065;-57
2022/03/11 05:07:07;;;;;;;24.40;12.90;;;10.00;99.90;;;;;;5031680;28;20033;-58
2022/03/11 05:09:35;;;;;;;23.95;13.98;;;10.00;99.90;;;;;;5031936;28;20049;-58
2022/03/11 05:12:03;;;;;;;21.77;12.13;;;10.00;99.90;;;;;;5016819;28;20057;-58
2022/03/11 05:14:31;;;;;;;26.55;13.02;;;9.90;99.90;;;;;;5016844;28;20064;-58
2022/03/11 05:16:58;;;;;;;25.73;13.35;;;10.00;99.90;;;;;;5032008;28;20053;-58
2022/03/11 05:19:28;;;;;;;21.88;11.57;;;9.90;99.90;;;;;;5021415;28;20054;-58
2022/03/11 05:21:56;;;;;;;20.98;11.85;;;9.90;99.90;;;;;;5032107;28;20045;-56
2022/03/11 05:24:23;;;;;;;22.58;12.18;;;9.90;99.90;;;;;;5031454;28;20042;-57
2022/03/11 05:26:51;;;;;;;23.25;11.13;;;9.80;99.90;;;;;;5031464;28;20049;-56
2022/03/11 05:29:18;;;;;;;23.50;12.05;;;9.80;99.90;;;;;;5031655;28;20054;-57
2022/03/11 05:31:46;;;;;;;21.45;12.65;;;9.70;99.90;;;;;;5031285;28;20527;-57
2022/03/11 05:34:14;;;;;;;25.48;12.93;;;9.70;99.90;;;;;;5031064;28;20049;-57
2022/03/11 05:36:42;;;;;;;21.67;11.63;;;9.70;99.90;;;;;;5031419;28;20052;-56
2022/03/11 05:39:10;;;;;;;18.27;10.75;;;9.70;99.90;;;;;;5031163;28;20045;-57
2022/03/11 05:41:38;;;;;;;20.00;11.05;;;9.70;99.90;;;;;;5031968;28;20362;-57
2022/03/11 05:44:06;;;;;;;19.55;11.43;;;9.70;99.90;;;;;;5031202;28;20382;-57
2022/03/11 05:46:33;;;;;;;21.05;11.13;;;9.60;99.90;;;;;;5031218;28;20044;-57
2022/03/11 05:49:01;;;;;;;22.50;10.93;;;9.60;99.90;;;;;;5002228;28;20053;-56
2022/03/11 05:51:29;;;;;;;18.15;10.80;;;9.60;99.90;;;;;;5016145;28;20045;-56
2022/03/11 05:53:56;;;;;;;20.58;10.05;;;9.60;99.90;;;;;;5018990;28;20057;-56
2022/03/11 05:56:24;;;;;;;18.55;10.23;;;9.50;99.90;;;;;;5028101;28;20061;-55
2022/03/11 05:58:52;;;;;;;19.33;10.05;;;9.50;99.90;;;;;;5022513;28;20057;-57
2022/03/11 06:01:20;;;;;;;21.58;10.23;;;9.40;99.90;;;;;;5009853;28;20042;-56
2022/03/11 06:03:48;;;;;;;16.50;9.88;;;9.40;99.90;;;;;;5016018;28;20053;-58
2022/03/11 06:06:16;;;;;;;19.02;9.93;;;9.40;99.90;;;;;;5012941;28;20048;-55
2022/03/11 06:08:44;;;;;;;20.27;10.52;;;9.30;99.90;;;;;;5023876;28;20401;-56
2022/03/11 06:11:16;;;;;;;19.23;10.02;;;9.30;99.90;;;;;;5023038;28;20504;-56
2022/03/11 06:13:44;;;;;;;18.90;8.18;;;9.20;99.90;;;;;;5027685;28;20489;-57
2022/03/11 06:16:11;;;;;;;20.23;9.43;;;9.20;99.90;;;;;;5028311;28;20041;-57
2022/03/11 06:18:39;;;;;;;16.45;9.30;;;9.20;99.90;;;;;;5027520;28;20046;-57
2022/03/11 06:21:08;;;;;;;17.52;8.73;;;9.20;99.90;;;;;;5027833;28;20646;-57
2022/03/11 06:23:36;;;;;;;17.67;9.23;;;9.10;99.90;;;;;;5027716;28;20539;-57
2022/03/11 06:26:04;;;;;;;19.60;9.73;;;9.10;99.90;;;;;;5026408;28;20520;-57
2022/03/11 06:28:31;;;;;;;14.45;8.25;;;9.10;99.90;;;;;;5026888;28;20512;-58
2022/03/11 06:30:59;;;;;;;13.65;7.55;;;9.10;99.90;;;;;;5009437;28;20511;-57
2022/03/11 06:33:27;;;;;;;16.95;8.93;;;9.00;99.90;;;;;;5024635;28;20054;-58
2022/03/11 06:35:54;;;;;;;15.18;8.50;;;9.00;99.90;;;;;;5024844;28;20485;-57
2022/03/11 06:38:22;;;;;;;17.00;9.20;;;9.00;99.90;;;;;;5028040;28;20393;-58
2022/03/11 06:40:51;;;;;;;15.90;8.10;;;9.00;99.90;;;;;;5027387;28;20046;-56
2022/03/11 06:43:19;;;;;;;17.50;8.63;;;9.00;99.90;;;;;;5021868;28;20048;-56
2022/03/11 06:45:47;;;;;;;17.45;9.32;;;9.00;99.90;;;;;;5005815;28;20050;-56
2022/03/11 06:48:18;;;;;;;15.20;8.38;;;9.00;99.90;;;;;;4989517;28;20041;-56
2022/03/11 06:50:45;;;;;;;16.23;8.25;;;9.00;99.90;;;;;;5024549;28;20045;-56
2022/03/11 06:53:14;;;;;;;16.05;8.00;;;9.00;99.90;;;;;;5030328;28;20052;-57
2022/03/11 06:55:41;;;;;;;16.58;8.80;;;9.10;99.90;;;;;;5031079;28;20046;-57
2022/03/11 06:58:09;;;;;;;13.60;7.60;;;9.10;99.90;;;;;;5030849;28;20049;-57
2022/03/11 07:00:38;;;;;;;14.25;8.57;;;9.10;99.90;;;;;;5021586;28;20042;-57
2022/03/11 07:03:06;;;;;;;16.35;8.00;;;9.10;99.90;;;;;;5012191;28;20512;-57
2022/03/11 07:05:34;;;;;;;14.63;8.52;;;9.10;99.90;;;;;;5009128;28;20396;-57
2022/03/11 07:08:02;;;;;;;14.90;8.05;;;9.10;99.90;;;;;;5029230;28;20427;-57
2022/03/11 07:10:30;;;;;;;15.15;6.63;;;9.10;99.90;;;;;;5029975;28;20040;-57
2022/03/11 07:12:59;;;;;;;14.13;7.65;;;9.10;99.90;;;;;;5029340;28;20520;-57
2022/03/11 07:15:27;;;;;;;13.90;7.90;;;9.10;99.90;;;;;;5028465;28;20037;-57
2022/03/11 07:17:54;;;;;;;12.80;6.78;;;9.10;99.90;;;;;;5024662;28;20050;-58
2022/03/11 07:20:22;;;;;;;12.23;6.50;;;9.10;99.90;;;;;;5029580;28;20052;-57
2022/03/11 07:23:10;;;;;;;12.02;6.72;;;9.20;99.90;;;;;;4992506;28;20397;-57
2022/03/11 07:25:38;;;;;;;11.70;7.20;;;9.20;99.90;;;;;;5023691;28;20060;-57
2022/03/11 07:28:06;;;;;;;13.38;6.97;;;9.30;99.90;;;;;;5010074;28;20056;-57
2022/03/11 07:30:33;;;;;;;12.20;6.65;;;9.30;99.90;;;;;;5029417;28;20041;-57
2022/03/11 07:33:01;;;;;;;14.05;5.93;;;9.40;99.90;;;;;;5028416;28;20413;-58
2022/03/11 07:35:29;;;;;;;13.02;5.97;;;9.40;99.90;;;;;;5027993;28;20049;-58
2022/03/11 07:37:57;;;;;;;10.38;7.22;;;9.40;99.90;;;;;;5022232;28;20207;-57
2022/03/11 07:40:25;;;;;;;13.68;6.90;;;9.40;99.90;;;;;;5016747;28;20045;-57
2022/03/11 07:42:52;;;;;;;13.63;7.60;;;9.50;99.90;;;;;;5030391;28;20050;-57
2022/03/11 07:45:21;;;;;;;13.32;6.65;;;9.50;99.90;;;;;;5012682;28;20049;-58
2022/03/11 07:47:48;;;;;;;11.05;6.63;;;9.60;99.90;;;;;;5026295;28;20050;-58
2022/03/11 07:50:16;;;;;;;10.65;6.47;;;9.60;99.90;;;;;;5008448;28;20484;-58
2022/03/11 07:52:44;;;;;;;11.88;5.68;;;9.60;99.90;;;;;;5029346;28;20493;-59
2022/03/11 07:55:11;;;;;;;12.73;5.30;;;9.60;99.90;;;;;;5012268;28;20073;-58
2022/03/11 07:57:39;;;;;;;13.48;6.32;;;9.60;99.90;;;;;;4999239;28;20046;-56
2022/03/11 08:00:09;;;;;;;12.68;5.50;;;9.70;99.90;;;;;;5014756;28;20057;-58
2022/03/11 08:02:40;;;;;;;12.25;6.50;;;9.70;99.90;;;;;;5023475;28;20597;-58
2022/03/11 08:05:14;;;;;;;11.10;6.30;;;9.70;99.90;;;;;;5019874;28;20065;-58
2022/03/11 08:07:48;;;;;;;16.15;6.72;;;9.70;99.90;;;;;;5025822;28;20068;-58
2022/03/11 08:10:18;;;;;;;9.43;6.00;;;9.70;99.90;;;;;;5026603;28;20596;-58
2022/03/11 08:12:45;;;;;;;9.95;6.63;;;9.70;99.90;;;;;;5023374;28;20045;-57
2022/03/11 08:15:14;;;;;;;12.25;6.82;;;9.70;99.90;;;;;;5026993;28;20041;-57
2022/03/11 08:17:41;;;;;;;12.05;5.55;;;9.70;99.90;;;;;;5009312;28;20057;-57
2022/03/11 08:20:10;;;;;;;11.43;6.60;;;9.70;99.90;;;;;;5018703;28;20053;-56
2022/03/11 08:22:38;;;;;;;8.93;5.27;;;9.70;99.90;;;;;;5027386;28;20045;-58
2022/03/11 08:25:09;;;;;;;12.25;5.75;;;9.70;99.90;;;;;;5008158;28;20049;-57
2022/03/11 08:27:39;;;;;;;9.43;5.80;;;9.70;99.90;;;;;;5009617;28;20044;-58
2022/03/11 08:30:09;;;;;;;10.48;6.10;;;9.80;99.90;;;;;;5022713;28;20045;-56
2022/03/11 08:32:38;;;;;;;9.60;5.43;;;9.80;99.90;;;;;;5022139;28;20606;-58
2022/03/11 08:35:06;;;;;;;12.60;6.00;;;9.90;99.90;;;;;;5021517;28;20045;-58
2022/03/11 08:37:39;;;;;;;11.93;5.95;;;9.90;99.90;;;;;;5014937;28;20041;-58
2022/03/11 08:40:09;;;;;;;9.45;6.18;;;9.90;99.90;;;;;;5025399;28;20060;-58
2022/03/11 08:42:38;;;;;;;14.88;6.15;;;9.90;99.90;;;;;;5022653;28;20365;-57
2022/03/11 08:45:08;;;;;;;10.30;5.97;;;10.00;99.90;;;;;;5018562;28;20060;-57
2022/03/11 08:47:41;;;;;;;12.30;6.20;;;10.00;99.90;;;;;;5026234;28;20049;-57
2022/03/11 08:50:09;;;;;;;12.10;5.88;;;10.00;99.90;;;;;;5024711;28;20405;-57
2022/03/11 08:52:37;;;;;;;11.35;6.55;;;10.10;99.90;;;;;;5026221;28;20050;-57
2022/03/11 08:55:05;;;;;;;8.98;5.60;;;10.20;99.90;;;;;;5026610;28;20053;-57
2022/03/11 08:57:35;;;;;;;10.88;6.47;;;10.20;99.90;;;;;;5027422;28;21639;-57
2022/03/11 09:00:07;;;;;;;;;;;10.30;99.90;;;;;;5016542;28;20057;-57
2022/03/11 09:02:38;;;;;;;11.05;5.68;;;10.30;99.90;;;;;;5028468;28;19944;-57
2022/03/11 09:05:07;;;;;;;10.00;5.57;;;10.30;99.90;;;;;;5024740;28;20064;-58
2022/03/11 09:07:38;;;;;;;15.40;5.90;;;10.30;99.90;;;;;;5027676;28;20048;-58
2022/03/11 09:10:12;;;;;;;9.77;5.75;;;10.40;99.90;;;;;;5027493;28;20045;-58
2022/03/11 09:12:41;;;;;;;10.65;6.05;;;10.40;99.90;;;;;;5027768;28;20060;-58
2022/03/11 09:15:10;;;;;;;13.68;6.88;;;10.40;99.90;;;;;;5028640;28;20046;-59
2022/03/11 09:17:38;;;;;;;12.67;5.70;;;10.40;99.90;;;;;;5028868;28;20540;-58
2022/03/11 09:20:06;;;;;;;17.92;7.03;;;10.40;99.90;;;;;;5027202;28;20219;-58
2022/03/11 09:22:55;;;;;;;11.57;6.10;;;10.40;99.90;;;;;;5027569;28;20045;-58
2022/03/11 09:25:23;;;;;;;13.80;6.45;;;10.50;99.90;;;;;;5011186;28;20048;-57
2022/03/11 09:27:50;;;;;;;10.52;6.45;;;10.50;99.90;;;;;;5027154;28;20491;-57
2022/03/11 09:30:18;;;;;;;14.32;6.72;;;10.50;99.90;;;;;;5025323;28;20041;-57
2022/03/11 09:32:46;;;;;;;10.70;6.15;;;10.50;99.90;;;;;;5027188;28;20061;-57
2022/03/11 09:35:15;;;;;;;11.70;6.22;;;10.50;99.90;;;;;;5026442;28;20038;-58
2022/03/11 09:37:43;;;;;;;11.60;6.45;;;10.50;99.90;;;;;;5017351;28;20054;-57
2022/03/11 09:40:12;;;;;;;12.85;6.85;;;10.60;99.90;;;;;;5022270;28;20052;-57
2022/03/11 09:42:40;;;;;;;13.05;7.32;;;10.50;99.90;;;;;;5027219;28;20045;-56
2022/03/11 09:45:09;;;;;;;13.15;7.10;;;10.50;99.90;;;;;;5012198;28;20504;-57
2022/03/11 09:47:42;;;;;;;15.30;7.15;;;10.50;99.90;;;;;;5026822;28;20054;-58
2022/03/11 09:50:13;;;;;;;16.25;6.55;;;10.50;99.90;;;;;;5023270;28;20069;-57
2022/03/11 09:52:42;;;;;;;17.70;7.57;;;10.50;99.90;;;;;;5018700;28;20048;-57
2022/03/11 09:55:10;;;;;;;10.98;6.45;;;10.50;99.90;;;;;;5027938;28;20057;-58
2022/03/11 09:57:38;;;;;;;17.60;7.93;;;10.60;99.90;;;;;;5027074;28;20041;-58
2022/03/11 10:00:09;;;;;;;15.18;7.57;;;10.50;99.90;;;;;;5010360;28;20056;-57
2022/03/11 10:02:45;;;;;;;15.75;7.40;;;10.60;99.90;;;;;;5028215;28;20042;-58
2022/03/11 10:05:15;;;;;;;13.98;5.75;;;10.60;99.90;;;;;;5022716;28;20057;-58
2022/03/11 10:08:07;;;;;;;13.57;7.80;;;10.60;99.90;;;;;;5004990;28;20060;-57
2022/03/11 10:10:35;;;;;;;13.57;7.45;;;10.60;99.90;;;;;;5022898;28;21416;-59
2022/03/11 10:13:08;;;;;;;14.57;7.68;;;10.70;99.90;;;;;;5021237;28;20396;-58
2022/03/11 10:15:38;;;;;;;;;;;10.70;99.90;;;;;;5007375;28;20049;-60
2022/03/11 10:18:09;;;;;;;11.82;7.65;;;10.80;99.90;;;;;;5022375;28;19928;-59
2022/03/11 10:20:37;;;;;;;15.43;7.05;;;10.80;99.90;;;;;;5024083;28;20056;-57
2022/03/11 10:23:11;;;;;;;13.48;7.22;;;10.80;99.90;;;;;;5026286;28;20041;-57
2022/03/11 10:25:39;;;;;;;16.92;7.22;;;10.80;99.90;;;;;;5026708;28;20049;-58
2022/03/11 10:28:09;;;;;;;13.55;6.55;;;10.90;99.90;;;;;;5014151;28;20064;-56
2022/03/11 10:30:40;;;;;;;12.20;6.68;;;10.90;99.90;;;;;;5030371;28;20052;-58
2022/03/11 10:33:14;;;;;;;10.88;5.70;;;10.90;99.90;;;;;;5026185;28;20049;-58
2022/03/11 10:35:47;;;;;;;12.18;6.20;;;10.90;99.90;;;;;;5029199;28;20045;-58
2022/03/11 10:38:20;;;;;;;11.07;6.03;;;10.90;99.90;;;;;;5031178;28;20053;-58
2022/03/11 10:40:53;;;;;;;11.75;7.40;;;10.90;99.90;;;;;;5026611;28;20531;-57
2022/03/11 10:43:25;;;;;;;13.35;6.22;;;10.90;99.90;;;;;;5030959;28;20045;-57
2022/03/11 10:45:54;;;;;;;12.38;6.40;;;10.90;99.90;;;;;;5031034;28;20046;-57
2022/03/11 10:48:42;;;;;;;14.18;6.22;;;10.90;99.90;;;;;;5031603;28;20052;-59
2022/03/11 10:51:24;;;;;;;10.02;6.40;;;10.90;99.90;;;;;;5030891;28;20042;-56
2022/03/11 10:53:52;;;;;;;12.02;6.40;;;10.80;99.90;;;;;;5031733;28;20042;-56
2022/03/11 10:56:40;;;;;;;12.48;7.38;;;10.80;99.90;;;;;;5028609;28;20056;-56
2022/03/11 10:59:28;;;;;;;11.90;6.82;;;10.80;99.90;;;;;;5016826;28;20520;-57
2022/03/11 11:01:57;;;;;;;13.93;6.93;;;10.90;99.90;;;;;;5031800;28;20049;-56
2022/03/11 11:04:26;;;;;;;12.55;6.93;;;10.90;99.90;;;;;;5030547;28;20045;-62
2022/03/11 11:06:56;;;;;;;11.45;6.75;;;11.00;99.90;;;;;;5031669;28;20049;-57
2022/03/11 11:09:26;;;;;;;12.20;6.55;;;11.00;99.90;;;;;;5025936;28;20045;-58
2022/03/11 11:11:54;;;;;;;12.63;7.72;;;11.00;99.90;;;;;;5021893;28;20400;-58
2022/03/11 11:14:22;;;;;;;14.00;7.35;;;11.00;99.90;;;;;;5016034;28;20033;-58
2022/03/11 11:16:55;;;;;;;14.95;7.50;;;11.00;99.90;;;;;;5028284;28;20053;-58
2022/03/11 11:19:24;;;;;;;12.55;7.78;;;11.00;99.90;;;;;;5030186;28;20408;-57
2022/03/11 11:21:52;;;;;;;14.53;8.80;;;11.00;99.90;;;;;;5026766;28;20061;-58
2022/03/11 11:24:24;;;;;;;15.63;8.20;;;11.00;99.90;;;;;;5030474;28;20045;-57
2022/03/11 11:26:56;;;;;;;16.65;8.43;;;10.90;99.90;;;;;;5030606;28;20615;-58
2022/03/11 11:29:29;;;;;;;16.52;9.05;;;10.80;99.90;;;;;;5029815;28;20046;-57
2022/03/11 11:31:58;;;;;;;14.82;8.30;;;10.80;99.90;;;;;;5017676;28;20061;-58
2022/03/11 11:34:30;;;;;;;15.90;7.88;;;10.80;99.90;;;;;;5019745;28;20049;-57
2022/03/11 11:36:59;;;;;;;14.07;7.95;;;10.80;99.90;;;;;;5023109;28;20052;-57
2022/03/11 11:39:41;;;;;;;17.48;9.15;;;10.70;99.90;;;;;;5029276;28;20057;-58
2022/03/11 11:42:11;;;;;;;17.02;7.50;;;10.80;99.90;;;;;;5028926;28;20053;-58
2022/03/11 11:44:44;;;;;;;12.82;7.90;;;10.70;99.90;;;;;;5030844;28;20040;-59
2022/03/11 11:47:20;;;;;;;17.88;8.38;;;10.70;99.90;;;;;;5029578;28;20052;-58
2022/03/11 11:49:52;;;;;;;17.63;8.55;;;10.70;99.90;;;;;;5029707;28;20052;-56
2022/03/11 11:52:36;;;;;;;15.50;7.50;;;10.70;99.90;;;;;;5029659;28;20057;-57
2022/03/11 11:55:25;;;;;;;17.23;8.00;;;10.80;99.90;;;;;;5026774;28;20048;-56
2022/03/11 11:57:53;;;;;;;14.95;8.50;;;10.90;99.90;;;;;;5024325;28;20053;-58
2022/03/11 12:00:32;;;;;;;14.27;8.20;;;11.00;99.90;;;;;;5008311;28;20044;-58
2022/03/11 12:03:01;;;;;;;16.30;8.10;;;11.20;99.90;;;;;;5030159;28;20053;-57
2022/03/11 12:05:51;;;;;;;18.83;8.73;;;11.40;99.90;;;;;;5025340;28;20038;-57
2022/03/11 12:08:33;;;;;;;17.95;8.55;;;11.60;99.90;;;;;;5020592;28;20038;-57
2022/03/11 12:11:02;;;;;;;15.25;8.18;;;11.70;99.90;;;;;;5029835;28;20408;-57
2022/03/11 12:13:35;;;;;;;12.35;7.55;;;11.70;99.90;;;;;;5012616;28;20065;-57
2022/03/11 12:16:21;;;;;;;12.93;7.50;;;11.70;99.90;;;;;;5016296;28;20056;-57
2022/03/11 12:18:49;;;;;;;11.50;6.55;;;11.70;99.90;;;;;;5028762;28;20064;-57
2022/03/11 12:21:27;;;;;;;14.07;7.32;;;11.60;99.90;;;;;;5014758;28;20409;-57
2022/03/11 12:24:15;;;;;;;13.15;6.93;;;11.60;99.90;;;;;;5017680;28;20410;-57
2022/03/11 12:26:43;;;;;;;14.02;8.10;;;11.60;99.90;;;;;;4997594;28;20412;-58
2022/03/11 12:29:29;;;;;;;13.80;8.23;;;11.60;99.90;;;;;;5022971;28;20432;-57
2022/03/11 12:31:57;;;;;;;14.15;7.97;;;11.60;99.90;;;;;;5029003;28;20049;-57
2022/03/11 12:34:25;;;;;;;12.48;7.20;;;11.60;99.90;;;;;;5028408;28;20045;-58
2022/03/11 12:36:53;;;;;;;13.63;7.88;;;11.50;99.90;;;;;;5028390;28;21270;-58
2022/03/11 12:39:28;;;;;;;14.65;8.18;;;11.50;99.90;;;;;;5027295;28;20052;-57
2022/03/11 12:41:57;;;;;;;12.60;7.95;;;11.50;99.90;;;;;;5022028;28;20042;-57
2022/03/11 12:44:25;;;;;;;13.98;7.20;;;11.40;99.90;;;;;;5022532;28;20381;-57
2022/03/11 12:46:53;;;;;;;14.98;6.95;;;11.40;99.90;;;;;;5028083;28;20793;-58
2022/03/11 12:49:27;;;;;;;11.43;6.70;;;11.40;99.90;;;;;;5028936;28;20034;-58